sensor_id;sensor_type;location;lat;lon;timestamp;P1;durP1;ratioP1;P2;durP2;ratioP2
77838;SDS011;67034;43.226;27.932;2023-07-22T00:02:05;11.73;;;8.20;;
77838;SDS011;67034;43.226;27.932;2023-07-22T00:04:31;11.65;;;7.93;;
77838;SDS011;67034;43.226;27.932;2023-07-22T00:06:56;11.68;;;8.45;;
77838;SDS011;67034;43.226;27.932;2023-07-22T00:09:22;9.60;;;7.40;;
77838;SDS011;67034;43.226;27.932;2023-07-22T00:11:50;11.32;;;8.35;;
77838;SDS011;67034;43.226;27.932;2023-07-22T00:14:16;10.18;;;7.82;;
77838;SDS011;67034;43.226;27.932;2023-07-22T00:16:41;11.32;;;7.88;;
77838;SDS011;67034;43.226;27.932;2023-07-22T00:19:07;10.05;;;7.70;;
77838;SDS011;67034;43.226;27.932;2023-07-22T00:21:33;10.00;;;7.25;;
77838;SDS011;67034;43.226;27.932;2023-07-22T00:23:59;9.82;;;7.45;;
77838;SDS011;67034;43.226;27.932;2023-07-22T00:26:25;9.45;;;7.57;;
77838;SDS011;67034;43.226;27.932;2023-07-22T00:28:52;11.30;;;7.97;;
77838;SDS011;67034;43.226;27.932;2023-07-22T00:31:18;11.43;;;8.60;;
77838;SDS011;67034;43.226;27.932;2023-07-22T00:33:43;9.77;;;7.45;;
77838;SDS011;67034;43.226;27.932;2023-07-22T00:36:09;9.60;;;7.80;;
77838;SDS011;67034;43.226;27.932;2023-07-22T00:38:35;12.57;;;7.75;;
77838;SDS011;67034;43.226;27.932;2023-07-22T00:41:01;12.05;;;8.23;;
77838;SDS011;67034;43.226;27.932;2023-07-22T00:43:29;12.25;;;7.82;;
77838;SDS011;67034;43.226;27.932;2023-07-22T00:45:57;11.30;;;8.25;;
77838;SDS011;67034;43.226;27.932;2023-07-22T00:48:22;11.90;;;8.10;;
77838;SDS011;67034;43.226;27.932;2023-07-22T00:50:49;9.45;;;7.57;;
77838;SDS011;67034;43.226;27.932;2023-07-22T00:53:15;10.98;;;8.00;;
77838;SDS011;67034;43.226;27.932;2023-07-22T00:55:40;13.45;;;8.85;;
77838;SDS011;67034;43.226;27.932;2023-07-22T00:58:06;13.35;;;8.27;;
77838;SDS011;67034;43.226;27.932;2023-07-22T01:00:32;9.02;;;7.47;;
77838;SDS011;67034;43.226;27.932;2023-07-22T01:02:59;9.68;;;7.57;;
77838;SDS011;67034;43.226;27.932;2023-07-22T01:05:25;9.55;;;7.40;;
77838;SDS011;67034;43.226;27.932;2023-07-22T01:07:52;10.50;;;7.93;;
77838;SDS011;67034;43.226;27.932;2023-07-22T01:10:18;10.98;;;8.20;;
77838;SDS011;67034;43.226;27.932;2023-07-22T01:12:45;11.77;;;8.07;;
77838;SDS011;67034;43.226;27.932;2023-07-22T01:15:11;11.65;;;8.15;;
77838;SDS011;67034;43.226;27.932;2023-07-22T01:17:37;11.38;;;8.10;;
77838;SDS011;67034;43.226;27.932;2023-07-22T01:20:05;9.95;;;7.70;;
77838;SDS011;67034;43.226;27.932;2023-07-22T01:22:32;9.43;;;7.88;;
77838;SDS011;67034;43.226;27.932;2023-07-22T01:25:00;11.15;;;8.45;;
77838;SDS011;67034;43.226;27.932;2023-07-22T01:27:26;11.77;;;8.73;;
77838;SDS011;67034;43.226;27.932;2023-07-22T01:29:52;12.07;;;8.15;;
77838;SDS011;67034;43.226;27.932;2023-07-22T01:32:18;14.35;;;8.25;;
77838;SDS011;67034;43.226;27.932;2023-07-22T01:34:45;14.57;;;8.70;;
77838;SDS011;67034;43.226;27.932;2023-07-22T01:37:11;10.00;;;8.13;;
77838;SDS011;67034;43.226;27.932;2023-07-22T01:39:36;8.95;;;7.68;;
77838;SDS011;67034;43.226;27.932;2023-07-22T01:42:04;10.68;;;8.32;;
77838;SDS011;67034;43.226;27.932;2023-07-22T01:44:29;13.77;;;10.73;;
77838;SDS011;67034;43.226;27.932;2023-07-22T01:46:55;13.68;;;9.88;;
77838;SDS011;67034;43.226;27.932;2023-07-22T01:49:21;14.55;;;11.38;;
77838;SDS011;67034;43.226;27.932;2023-07-22T01:51:49;15.50;;;11.63;;
77838;SDS011;67034;43.226;27.932;2023-07-22T01:54:15;16.17;;;11.32;;
77838;SDS011;67034;43.226;27.932;2023-07-22T01:56:40;15.32;;;10.23;;
77838;SDS011;67034;43.226;27.932;2023-07-22T01:59:07;16.15;;;12.38;;
77838;SDS011;67034;43.226;27.932;2023-07-22T02:01:34;14.50;;;10.35;;
77838;SDS011;67034;43.226;27.932;2023-07-22T02:04:00;15.10;;;10.95;;
77838;SDS011;67034;43.226;27.932;2023-07-22T02:06:26;17.23;;;10.88;;
77838;SDS011;67034;43.226;27.932;2023-07-22T02:08:52;15.63;;;10.90;;
77838;SDS011;67034;43.226;27.932;2023-07-22T02:11:18;15.40;;;11.57;;
77838;SDS011;67034;43.226;27.932;2023-07-22T02:13:44;14.93;;;11.32;;
77838;SDS011;67034;43.226;27.932;2023-07-22T02:16:11;14.48;;;11.18;;
77838;SDS011;67034;43.226;27.932;2023-07-22T02:18:36;18.98;;;11.45;;
77838;SDS011;67034;43.226;27.932;2023-07-22T02:21:02;13.27;;;10.88;;
77838;SDS011;67034;43.226;27.932;2023-07-22T02:23:28;15.30;;;10.40;;
77838;SDS011;67034;43.226;27.932;2023-07-22T02:25:54;14.95;;;10.57;;
77838;SDS011;67034;43.226;27.932;2023-07-22T02:28:20;14.77;;;11.23;;
77838;SDS011;67034;43.226;27.932;2023-07-22T02:30:47;19.85;;;10.05;;
77838;SDS011;67034;43.226;27.932;2023-07-22T02:33:15;12.95;;;10.30;;
77838;SDS011;67034;43.226;27.932;2023-07-22T02:35:41;13.88;;;9.75;;
77838;SDS011;67034;43.226;27.932;2023-07-22T02:38:07;17.48;;;11.10;;
77838;SDS011;67034;43.226;27.932;2023-07-22T02:40:34;15.48;;;10.50;;
77838;SDS011;67034;43.226;27.932;2023-07-22T02:42:59;16.75;;;11.15;;
77838;SDS011;67034;43.226;27.932;2023-07-22T02:45:25;15.48;;;10.90;;
77838;SDS011;67034;43.226;27.932;2023-07-22T02:47:51;13.23;;;10.63;;
77838;SDS011;67034;43.226;27.932;2023-07-22T02:50:18;12.90;;;10.70;;
77838;SDS011;67034;43.226;27.932;2023-07-22T02:52:44;12.93;;;10.20;;
77838;SDS011;67034;43.226;27.932;2023-07-22T02:55:11;13.77;;;11.18;;
77838;SDS011;67034;43.226;27.932;2023-07-22T02:57:38;13.90;;;10.48;;
77838;SDS011;67034;43.226;27.932;2023-07-22T03:00:06;17.25;;;10.70;;
77838;SDS011;67034;43.226;27.932;2023-07-22T03:02:33;17.27;;;10.38;;
77838;SDS011;67034;43.226;27.932;2023-07-22T03:04:59;12.52;;;10.30;;
77838;SDS011;67034;43.226;27.932;2023-07-22T03:07:26;12.85;;;8.88;;
77838;SDS011;67034;43.226;27.932;2023-07-22T03:09:52;12.32;;;9.45;;
77838;SDS011;67034;43.226;27.932;2023-07-22T03:12:18;16.05;;;10.02;;
77838;SDS011;67034;43.226;27.932;2023-07-22T03:14:44;13.95;;;10.27;;
77838;SDS011;67034;43.226;27.932;2023-07-22T03:17:10;10.45;;;8.60;;
77838;SDS011;67034;43.226;27.932;2023-07-22T03:19:37;11.38;;;9.07;;
77838;SDS011;67034;43.226;27.932;2023-07-22T03:22:03;22.90;;;16.98;;
77838;SDS011;67034;43.226;27.932;2023-07-22T03:24:31;13.43;;;9.45;;
77838;SDS011;67034;43.226;27.932;2023-07-22T03:26:57;13.30;;;9.40;;
77838;SDS011;67034;43.226;27.932;2023-07-22T03:29:22;12.80;;;9.55;;
77838;SDS011;67034;43.226;27.932;2023-07-22T03:31:49;12.88;;;8.52;;
77838;SDS011;67034;43.226;27.932;2023-07-22T03:34:15;11.82;;;8.63;;
77838;SDS011;67034;43.226;27.932;2023-07-22T03:36:40;10.10;;;8.23;;
77838;SDS011;67034;43.226;27.932;2023-07-22T03:39:06;11.15;;;8.82;;
77838;SDS011;67034;43.226;27.932;2023-07-22T03:41:34;11.63;;;8.52;;
77838;SDS011;67034;43.226;27.932;2023-07-22T03:44:00;12.27;;;9.10;;
77838;SDS011;67034;43.226;27.932;2023-07-22T03:46:26;11.07;;;9.07;;
77838;SDS011;67034;43.226;27.932;2023-07-22T03:48:51;15.45;;;10.95;;
77838;SDS011;67034;43.226;27.932;2023-07-22T03:51:17;12.30;;;9.45;;
77838;SDS011;67034;43.226;27.932;2023-07-22T03:53:43;17.92;;;9.90;;
77838;SDS011;67034;43.226;27.932;2023-07-22T03:56:09;16.75;;;10.60;;
77838;SDS011;67034;43.226;27.932;2023-07-22T03:58:36;17.02;;;10.93;;
77838;SDS011;67034;43.226;27.932;2023-07-22T04:01:01;13.80;;;9.93;;
77838;SDS011;67034;43.226;27.932;2023-07-22T04:03:27;11.60;;;9.98;;
77838;SDS011;67034;43.226;27.932;2023-07-22T04:05:53;14.02;;;8.82;;
77838;SDS011;67034;43.226;27.932;2023-07-22T04:08:19;14.00;;;9.43;;
77838;SDS011;67034;43.226;27.932;2023-07-22T04:10:50;14.35;;;9.68;;
77838;SDS011;67034;43.226;27.932;2023-07-22T04:13:16;15.85;;;9.50;;
77838;SDS011;67034;43.226;27.932;2023-07-22T04:15:43;13.65;;;9.40;;
77838;SDS011;67034;43.226;27.932;2023-07-22T04:18:09;11.60;;;9.20;;
77838;SDS011;67034;43.226;27.932;2023-07-22T04:20:36;13.82;;;11.00;;
77838;SDS011;67034;43.226;27.932;2023-07-22T04:23:02;14.00;;;9.85;;
77838;SDS011;67034;43.226;27.932;2023-07-22T04:25:30;15.20;;;10.43;;
77838;SDS011;67034;43.226;27.932;2023-07-22T04:27:56;12.57;;;10.65;;
77838;SDS011;67034;43.226;27.932;2023-07-22T04:30:21;11.93;;;8.82;;
77838;SDS011;67034;43.226;27.932;2023-07-22T04:32:48;12.18;;;8.43;;
77838;SDS011;67034;43.226;27.932;2023-07-22T04:35:15;14.65;;;9.35;;
77838;SDS011;67034;43.226;27.932;2023-07-22T04:37:42;13.25;;;10.13;;
77838;SDS011;67034;43.226;27.932;2023-07-22T04:40:08;11.57;;;9.32;;
77838;SDS011;67034;43.226;27.932;2023-07-22T04:42:38;14.43;;;9.02;;
77838;SDS011;67034;43.226;27.932;2023-07-22T04:45:05;13.38;;;9.10;;
77838;SDS011;67034;43.226;27.932;2023-07-22T04:47:31;10.95;;;8.23;;
77838;SDS011;67034;43.226;27.932;2023-07-22T04:49:58;12.32;;;8.80;;
77838;SDS011;67034;43.226;27.932;2023-07-22T04:52:26;11.27;;;7.93;;
77838;SDS011;67034;43.226;27.932;2023-07-22T04:54:51;12.90;;;8.30;;
77838;SDS011;67034;43.226;27.932;2023-07-22T04:57:18;15.88;;;8.52;;
77838;SDS011;67034;43.226;27.932;2023-07-22T04:59:44;11.27;;;7.70;;
77838;SDS011;67034;43.226;27.932;2023-07-22T05:02:10;9.55;;;8.52;;
77838;SDS011;67034;43.226;27.932;2023-07-22T05:04:35;16.83;;;8.85;;
77838;SDS011;67034;43.226;27.932;2023-07-22T05:07:03;14.85;;;7.95;;
77838;SDS011;67034;43.226;27.932;2023-07-22T05:09:29;9.40;;;7.85;;
77838;SDS011;67034;43.226;27.932;2023-07-22T05:11:55;11.38;;;6.55;;
77838;SDS011;67034;43.226;27.932;2023-07-22T05:14:20;12.35;;;7.15;;
77838;SDS011;67034;43.226;27.932;2023-07-22T05:16:46;7.82;;;6.45;;
77838;SDS011;67034;43.226;27.932;2023-07-22T05:19:12;10.30;;;6.50;;
77838;SDS011;67034;43.226;27.932;2023-07-22T05:21:37;9.45;;;6.60;;
77838;SDS011;67034;43.226;27.932;2023-07-22T05:24:05;8.80;;;6.32;;
77838;SDS011;67034;43.226;27.932;2023-07-22T05:26:30;6.85;;;5.78;;
77838;SDS011;67034;43.226;27.932;2023-07-22T05:28:56;9.50;;;6.45;;
77838;SDS011;67034;43.226;27.932;2023-07-22T05:31:22;11.55;;;7.70;;
77838;SDS011;67034;43.226;27.932;2023-07-22T05:33:48;11.52;;;6.75;;
77838;SDS011;67034;43.226;27.932;2023-07-22T05:36:13;12.10;;;7.05;;
77838;SDS011;67034;43.226;27.932;2023-07-22T05:38:39;9.15;;;6.18;;
77838;SDS011;67034;43.226;27.932;2023-07-22T05:41:06;8.13;;;6.50;;
77838;SDS011;67034;43.226;27.932;2023-07-22T05:43:32;8.27;;;6.00;;
77838;SDS011;67034;43.226;27.932;2023-07-22T05:45:58;9.90;;;6.40;;
77838;SDS011;67034;43.226;27.932;2023-07-22T05:48:23;7.88;;;6.22;;
77838;SDS011;67034;43.226;27.932;2023-07-22T05:50:49;9.98;;;6.18;;
77838;SDS011;67034;43.226;27.932;2023-07-22T05:53:15;10.15;;;6.93;;
77838;SDS011;67034;43.226;27.932;2023-07-22T05:55:40;7.35;;;6.18;;
77838;SDS011;67034;43.226;27.932;2023-07-22T05:58:10;8.60;;;6.30;;
77838;SDS011;67034;43.226;27.932;2023-07-22T06:00:40;8.18;;;6.65;;
77838;SDS011;67034;43.226;27.932;2023-07-22T06:03:12;13.76;;;7.86;;
77838;SDS011;67034;43.226;27.932;2023-07-22T06:05:38;8.02;;;7.10;;
77838;SDS011;67034;43.226;27.932;2023-07-22T06:08:04;10.20;;;6.80;;
77838;SDS011;67034;43.226;27.932;2023-07-22T06:10:30;9.23;;;6.95;;
77838;SDS011;67034;43.226;27.932;2023-07-22T06:12:56;10.57;;;6.68;;
77838;SDS011;67034;43.226;27.932;2023-07-22T06:15:23;9.75;;;7.70;;
77838;SDS011;67034;43.226;27.932;2023-07-22T06:17:49;9.05;;;6.68;;
77838;SDS011;67034;43.226;27.932;2023-07-22T06:20:15;9.05;;;7.15;;
77838;SDS011;67034;43.226;27.932;2023-07-22T06:22:40;10.25;;;7.75;;
77838;SDS011;67034;43.226;27.932;2023-07-22T06:25:06;11.75;;;6.93;;
77838;SDS011;67034;43.226;27.932;2023-07-22T06:27:33;11.00;;;6.70;;
77838;SDS011;67034;43.226;27.932;2023-07-22T06:29:59;10.95;;;8.48;;
77838;SDS011;67034;43.226;27.932;2023-07-22T06:32:26;10.98;;;7.47;;
77838;SDS011;67034;43.226;27.932;2023-07-22T06:34:55;11.13;;;6.55;;
77838;SDS011;67034;43.226;27.932;2023-07-22T06:37:21;11.13;;;8.23;;
77838;SDS011;67034;43.226;27.932;2023-07-22T06:39:46;9.30;;;7.80;;
77838;SDS011;67034;43.226;27.932;2023-07-22T06:42:12;10.85;;;7.65;;
77838;SDS011;67034;43.226;27.932;2023-07-22T06:44:38;10.40;;;7.15;;
77838;SDS011;67034;43.226;27.932;2023-07-22T06:47:03;11.25;;;7.57;;
77838;SDS011;67034;43.226;27.932;2023-07-22T06:49:31;20.40;;;7.55;;
77838;SDS011;67034;43.226;27.932;2023-07-22T06:51:56;13.05;;;7.80;;
77838;SDS011;67034;43.226;27.932;2023-07-22T06:54:22;8.43;;;7.38;;
77838;SDS011;67034;43.226;27.932;2023-07-22T06:56:48;8.85;;;7.53;;
77838;SDS011;67034;43.226;27.932;2023-07-22T06:59:13;11.13;;;7.35;;
77838;SDS011;67034;43.226;27.932;2023-07-22T07:01:39;9.13;;;6.95;;
77838;SDS011;67034;43.226;27.932;2023-07-22T07:04:06;13.48;;;8.98;;
77838;SDS011;67034;43.226;27.932;2023-07-22T07:06:33;8.18;;;6.80;;
77838;SDS011;67034;43.226;27.932;2023-07-22T07:08:59;11.80;;;6.75;;
77838;SDS011;67034;43.226;27.932;2023-07-22T07:11:25;9.43;;;7.20;;
77838;SDS011;67034;43.226;27.932;2023-07-22T07:13:51;7.97;;;6.32;;
77838;SDS011;67034;43.226;27.932;2023-07-22T07:16:21;13.52;;;9.35;;
77838;SDS011;67034;43.226;27.932;2023-07-22T07:18:50;8.98;;;7.75;;
77838;SDS011;67034;43.226;27.932;2023-07-22T07:21:16;9.50;;;7.50;;
77838;SDS011;67034;43.226;27.932;2023-07-22T07:23:43;14.70;;;8.55;;
77838;SDS011;67034;43.226;27.932;2023-07-22T07:26:09;12.98;;;9.27;;
77838;SDS011;67034;43.226;27.932;2023-07-22T07:28:35;10.98;;;8.13;;
77838;SDS011;67034;43.226;27.932;2023-07-22T07:31:01;9.20;;;7.30;;
77838;SDS011;67034;43.226;27.932;2023-07-22T07:33:27;10.98;;;8.70;;
77838;SDS011;67034;43.226;27.932;2023-07-22T07:35:53;11.43;;;8.20;;
77838;SDS011;67034;43.226;27.932;2023-07-22T07:38:18;8.07;;;7.18;;
77838;SDS011;67034;43.226;27.932;2023-07-22T07:40:46;11.18;;;7.57;;
77838;SDS011;67034;43.226;27.932;2023-07-22T07:43:12;15.25;;;8.40;;
77838;SDS011;67034;43.226;27.932;2023-07-22T07:45:38;11.32;;;7.75;;
77838;SDS011;67034;43.226;27.932;2023-07-22T07:48:04;11.05;;;7.40;;
77838;SDS011;67034;43.226;27.932;2023-07-22T07:50:30;9.10;;;7.30;;
77838;SDS011;67034;43.226;27.932;2023-07-22T07:52:57;10.65;;;8.00;;
77838;SDS011;67034;43.226;27.932;2023-07-22T07:55:22;9.52;;;7.88;;
77838;SDS011;67034;43.226;27.932;2023-07-22T07:57:50;12.52;;;7.40;;
77838;SDS011;67034;43.226;27.932;2023-07-22T08:00:15;14.02;;;8.18;;
77838;SDS011;67034;43.226;27.932;2023-07-22T08:02:42;12.32;;;8.40;;
77838;SDS011;67034;43.226;27.932;2023-07-22T08:05:07;10.85;;;7.93;;
77838;SDS011;67034;43.226;27.932;2023-07-22T08:07:34;10.60;;;7.57;;
77838;SDS011;67034;43.226;27.932;2023-07-22T08:10:00;9.82;;;7.95;;
77838;SDS011;67034;43.226;27.932;2023-07-22T08:12:26;10.45;;;7.15;;
77838;SDS011;67034;43.226;27.932;2023-07-22T08:14:53;9.25;;;7.50;;
77838;SDS011;67034;43.226;27.932;2023-07-22T08:17:19;9.95;;;7.05;;
77838;SDS011;67034;43.226;27.932;2023-07-22T08:19:44;10.52;;;7.15;;
77838;SDS011;67034;43.226;27.932;2023-07-22T08:22:10;15.40;;;7.50;;
77838;SDS011;67034;43.226;27.932;2023-07-22T08:24:36;9.88;;;7.60;;
77838;SDS011;67034;43.226;27.932;2023-07-22T08:27:02;11.27;;;7.78;;
77838;SDS011;67034;43.226;27.932;2023-07-22T08:29:29;8.77;;;7.85;;
77838;SDS011;67034;43.226;27.932;2023-07-22T08:31:56;9.13;;;7.00;;
77838;SDS011;67034;43.226;27.932;2023-07-22T08:34:21;10.48;;;7.10;;
77838;SDS011;67034;43.226;27.932;2023-07-22T08:36:47;12.90;;;7.82;;
77838;SDS011;67034;43.226;27.932;2023-07-22T08:39:22;8.88;;;6.70;;
77838;SDS011;67034;43.226;27.932;2023-07-22T08:41:49;10.38;;;8.27;;
77838;SDS011;67034;43.226;27.932;2023-07-22T08:44:16;15.97;;;7.37;;
77838;SDS011;67034;43.226;27.932;2023-07-22T08:46:46;9.65;;;7.07;;
77838;SDS011;67034;43.226;27.932;2023-07-22T08:49:14;13.20;;;8.57;;
77838;SDS011;67034;43.226;27.932;2023-07-22T08:51:40;11.13;;;7.40;;
77838;SDS011;67034;43.226;27.932;2023-07-22T08:54:06;11.68;;;8.98;;
77838;SDS011;67034;43.226;27.932;2023-07-22T08:56:33;10.15;;;6.82;;
77838;SDS011;67034;43.226;27.932;2023-07-22T08:59:00;9.85;;;7.90;;
77838;SDS011;67034;43.226;27.932;2023-07-22T09:01:27;9.32;;;6.25;;
77838;SDS011;67034;43.226;27.932;2023-07-22T09:03:53;11.88;;;7.30;;
77838;SDS011;67034;43.226;27.932;2023-07-22T09:06:23;8.02;;;6.38;;
77838;SDS011;67034;43.226;27.932;2023-07-22T09:08:48;9.27;;;6.82;;
77838;SDS011;67034;43.226;27.932;2023-07-22T09:11:15;10.45;;;6.88;;
77838;SDS011;67034;43.226;27.932;2023-07-22T09:13:41;8.75;;;6.53;;
77838;SDS011;67034;43.226;27.932;2023-07-22T09:16:10;10.10;;;6.03;;
77838;SDS011;67034;43.226;27.932;2023-07-22T09:18:38;14.40;;;7.90;;
77838;SDS011;67034;43.226;27.932;2023-07-22T09:21:03;10.48;;;6.57;;
77838;SDS011;67034;43.226;27.932;2023-07-22T09:23:34;10.23;;;7.22;;
77838;SDS011;67034;43.226;27.932;2023-07-22T09:26:09;10.32;;;7.55;;
77838;SDS011;67034;43.226;27.932;2023-07-22T09:28:47;9.70;;;6.97;;
77838;SDS011;67034;43.226;27.932;2023-07-22T09:31:13;6.50;;;5.82;;
77838;SDS011;67034;43.226;27.932;2023-07-22T09:33:39;14.18;;;8.88;;
77838;SDS011;67034;43.226;27.932;2023-07-22T09:36:04;7.97;;;6.28;;
77838;SDS011;67034;43.226;27.932;2023-07-22T09:38:30;10.45;;;6.80;;
77838;SDS011;67034;43.226;27.932;2023-07-22T09:40:57;10.35;;;7.15;;
77838;SDS011;67034;43.226;27.932;2023-07-22T09:43:23;10.55;;;7.07;;
77838;SDS011;67034;43.226;27.932;2023-07-22T09:45:49;10.52;;;7.70;;
77838;SDS011;67034;43.226;27.932;2023-07-22T09:48:15;11.40;;;6.90;;
77838;SDS011;67034;43.226;27.932;2023-07-22T09:50:41;8.00;;;6.40;;
77838;SDS011;67034;43.226;27.932;2023-07-22T09:53:06;13.13;;;7.72;;
77838;SDS011;67034;43.226;27.932;2023-07-22T09:55:32;8.57;;;6.47;;
77838;SDS011;67034;43.226;27.932;2023-07-22T09:58:01;11.32;;;7.75;;
77838;SDS011;67034;43.226;27.932;2023-07-22T10:00:28;8.32;;;6.22;;
77838;SDS011;67034;43.226;27.932;2023-07-22T10:02:56;8.25;;;6.82;;
77838;SDS011;67034;43.226;27.932;2023-07-22T10:05:22;9.60;;;7.72;;
77838;SDS011;67034;43.226;27.932;2023-07-22T10:07:50;11.50;;;6.75;;
77838;SDS011;67034;43.226;27.932;2023-07-22T10:10:17;7.32;;;5.72;;
77838;SDS011;67034;43.226;27.932;2023-07-22T10:12:44;10.77;;;6.38;;
77838;SDS011;67034;43.226;27.932;2023-07-22T10:15:12;10.63;;;6.60;;
77838;SDS011;67034;43.226;27.932;2023-07-22T10:17:39;12.95;;;7.50;;
77838;SDS011;67034;43.226;27.932;2023-07-22T10:20:05;8.43;;;6.07;;
77838;SDS011;67034;43.226;27.932;2023-07-22T10:22:33;7.97;;;6.70;;
77838;SDS011;67034;43.226;27.932;2023-07-22T10:25:00;7.47;;;6.00;;
77838;SDS011;67034;43.226;27.932;2023-07-22T10:27:28;9.90;;;6.97;;
77838;SDS011;67034;43.226;27.932;2023-07-22T10:29:56;11.73;;;7.68;;
77838;SDS011;67034;43.226;27.932;2023-07-22T10:32:23;11.15;;;7.80;;
77838;SDS011;67034;43.226;27.932;2023-07-22T10:34:49;11.50;;;7.55;;
77838;SDS011;67034;43.226;27.932;2023-07-22T10:37:17;11.10;;;6.93;;
77838;SDS011;67034;43.226;27.932;2023-07-22T10:39:43;11.18;;;7.18;;
77838;SDS011;67034;43.226;27.932;2023-07-22T10:42:09;10.80;;;6.78;;
77838;SDS011;67034;43.226;27.932;2023-07-22T10:44:48;10.10;;;7.22;;
77838;SDS011;67034;43.226;27.932;2023-07-22T10:47:14;11.63;;;6.85;;
77838;SDS011;67034;43.226;27.932;2023-07-22T10:50:05;10.18;;;7.35;;
77838;SDS011;67034;43.226;27.932;2023-07-22T10:52:39;10.98;;;7.90;;
77838;SDS011;67034;43.226;27.932;2023-07-22T10:55:13;12.38;;;6.82;;
77838;SDS011;67034;43.226;27.932;2023-07-22T10:57:47;9.27;;;6.47;;
77838;SDS011;67034;43.226;27.932;2023-07-22T11:00:17;13.10;;;7.50;;
77838;SDS011;67034;43.226;27.932;2023-07-22T11:02:47;11.60;;;7.63;;
77838;SDS011;67034;43.226;27.932;2023-07-22T11:05:46;9.18;;;6.95;;
77838;SDS011;67034;43.226;27.932;2023-07-22T11:08:13;9.73;;;7.13;;
77838;SDS011;67034;43.226;27.932;2023-07-22T11:10:38;12.25;;;7.15;;
77838;SDS011;67034;43.226;27.932;2023-07-22T11:13:18;9.00;;;6.70;;
77838;SDS011;67034;43.226;27.932;2023-07-22T11:15:46;12.63;;;6.18;;
77838;SDS011;67034;43.226;27.932;2023-07-22T11:18:14;14.07;;;6.43;;
77838;SDS011;67034;43.226;27.932;2023-07-22T11:20:39;8.93;;;6.30;;
77838;SDS011;67034;43.226;27.932;2023-07-22T11:23:05;6.40;;;5.70;;
77838;SDS011;67034;43.226;27.932;2023-07-22T11:25:33;10.85;;;5.50;;
77838;SDS011;67034;43.226;27.932;2023-07-22T11:27:59;28.88;;;7.60;;
77838;SDS011;67034;43.226;27.932;2023-07-22T11:30:24;9.77;;;6.82;;
77838;SDS011;67034;43.226;27.932;2023-07-22T11:32:52;9.77;;;5.90;;
77838;SDS011;67034;43.226;27.932;2023-07-22T11:35:19;16.38;;;6.85;;
77838;SDS011;67034;43.226;27.932;2023-07-22T11:37:45;8.88;;;6.13;;
77838;SDS011;67034;43.226;27.932;2023-07-22T11:40:11;8.43;;;6.07;;
77838;SDS011;67034;43.226;27.932;2023-07-22T11:42:38;9.50;;;6.40;;
77838;SDS011;67034;43.226;27.932;2023-07-22T11:45:04;10.57;;;6.10;;
77838;SDS011;67034;43.226;27.932;2023-07-22T11:47:31;9.13;;;5.45;;
77838;SDS011;67034;43.226;27.932;2023-07-22T11:49:57;12.52;;;7.05;;
77838;SDS011;67034;43.226;27.932;2023-07-22T11:52:25;8.63;;;6.00;;
77838;SDS011;67034;43.226;27.932;2023-07-22T11:54:50;11.82;;;5.85;;
77838;SDS011;67034;43.226;27.932;2023-07-22T11:57:17;7.18;;;5.22;;
77838;SDS011;67034;43.226;27.932;2023-07-22T11:59:44;8.98;;;5.65;;
77838;SDS011;67034;43.226;27.932;2023-07-22T12:02:12;7.90;;;5.35;;
77838;SDS011;67034;43.226;27.932;2023-07-22T12:04:39;8.20;;;6.70;;
77838;SDS011;67034;43.226;27.932;2023-07-22T12:07:05;9.05;;;5.65;;
77838;SDS011;67034;43.226;27.932;2023-07-22T12:09:32;8.05;;;5.70;;
77838;SDS011;67034;43.226;27.932;2023-07-22T12:11:58;7.47;;;6.45;;
77838;SDS011;67034;43.226;27.932;2023-07-22T12:14:31;7.75;;;6.03;;
77838;SDS011;67034;43.226;27.932;2023-07-22T12:16:58;7.45;;;5.32;;
77838;SDS011;67034;43.226;27.932;2023-07-22T12:19:24;9.20;;;6.40;;
77838;SDS011;67034;43.226;27.932;2023-07-22T12:21:53;6.25;;;5.22;;
77838;SDS011;67034;43.226;27.932;2023-07-22T12:24:19;7.15;;;5.53;;
77838;SDS011;67034;43.226;27.932;2023-07-22T12:26:46;6.22;;;5.45;;
77838;SDS011;67034;43.226;27.932;2023-07-22T12:29:12;11.13;;;5.97;;
77838;SDS011;67034;43.226;27.932;2023-07-22T12:31:37;7.70;;;6.15;;
77838;SDS011;67034;43.226;27.932;2023-07-22T12:34:03;9.93;;;5.50;;
77838;SDS011;67034;43.226;27.932;2023-07-22T12:36:29;8.18;;;5.63;;
77838;SDS011;67034;43.226;27.932;2023-07-22T12:38:55;7.60;;;5.40;;
77838;SDS011;67034;43.226;27.932;2023-07-22T12:41:21;7.47;;;5.82;;
77838;SDS011;67034;43.226;27.932;2023-07-22T12:43:48;9.25;;;5.55;;
77838;SDS011;67034;43.226;27.932;2023-07-22T12:46:14;8.07;;;4.75;;
77838;SDS011;67034;43.226;27.932;2023-07-22T12:48:40;7.93;;;5.57;;
77838;SDS011;67034;43.226;27.932;2023-07-22T12:51:05;10.18;;;5.15;;
77838;SDS011;67034;43.226;27.932;2023-07-22T12:53:31;10.45;;;5.22;;
77838;SDS011;67034;43.226;27.932;2023-07-22T12:55:57;30.02;;;7.07;;
77838;SDS011;67034;43.226;27.932;2023-07-22T12:58:22;7.90;;;5.53;;
77838;SDS011;67034;43.226;27.932;2023-07-22T13:00:49;8.95;;;5.38;;
77838;SDS011;67034;43.226;27.932;2023-07-22T13:03:15;8.18;;;5.18;;
77838;SDS011;67034;43.226;27.932;2023-07-22T13:05:41;16.45;;;5.43;;
77838;SDS011;67034;43.226;27.932;2023-07-22T13:08:08;16.98;;;5.45;;
77838;SDS011;67034;43.226;27.932;2023-07-22T13:10:34;8.45;;;4.53;;
77838;SDS011;67034;43.226;27.932;2023-07-22T13:13:02;7.65;;;4.93;;
77838;SDS011;67034;43.226;27.932;2023-07-22T13:15:33;7.60;;;5.10;;
77838;SDS011;67034;43.226;27.932;2023-07-22T13:18:00;8.15;;;5.50;;
77838;SDS011;67034;43.226;27.932;2023-07-22T13:20:26;7.13;;;5.20;;
77838;SDS011;67034;43.226;27.932;2023-07-22T13:22:52;7.43;;;4.70;;
77838;SDS011;67034;43.226;27.932;2023-07-22T13:25:17;8.15;;;4.93;;
77838;SDS011;67034;43.226;27.932;2023-07-22T13:27:43;5.88;;;4.75;;
77838;SDS011;67034;43.226;27.932;2023-07-22T13:30:09;7.47;;;4.32;;
77838;SDS011;67034;43.226;27.932;2023-07-22T13:32:35;7.38;;;4.82;;
77838;SDS011;67034;43.226;27.932;2023-07-22T13:35:03;6.03;;;5.03;;
77838;SDS011;67034;43.226;27.932;2023-07-22T13:37:29;7.03;;;4.50;;
77838;SDS011;67034;43.226;27.932;2023-07-22T13:39:55;12.90;;;5.00;;
77838;SDS011;67034;43.226;27.932;2023-07-22T13:42:23;13.70;;;6.47;;
77838;SDS011;67034;43.226;27.932;2023-07-22T13:44:51;11.38;;;6.25;;
77838;SDS011;67034;43.226;27.932;2023-07-22T13:47:16;7.47;;;5.00;;
77838;SDS011;67034;43.226;27.932;2023-07-22T13:49:42;11.50;;;7.43;;
77838;SDS011;67034;43.226;27.932;2023-07-22T13:52:10;13.95;;;6.72;;
77838;SDS011;67034;43.226;27.932;2023-07-22T13:54:36;16.00;;;7.55;;
77838;SDS011;67034;43.226;27.932;2023-07-22T13:57:02;9.15;;;5.30;;
77838;SDS011;67034;43.226;27.932;2023-07-22T13:59:28;11.00;;;6.13;;
77838;SDS011;67034;43.226;27.932;2023-07-22T14:01:53;8.27;;;5.55;;
77838;SDS011;67034;43.226;27.932;2023-07-22T14:04:19;14.05;;;5.78;;
77838;SDS011;67034;43.226;27.932;2023-07-22T14:06:45;7.65;;;5.03;;
77838;SDS011;67034;43.226;27.932;2023-07-22T14:09:12;6.82;;;5.22;;
77838;SDS011;67034;43.226;27.932;2023-07-22T14:11:37;9.60;;;5.10;;
77838;SDS011;67034;43.226;27.932;2023-07-22T14:14:03;7.75;;;5.65;;
77838;SDS011;67034;43.226;27.932;2023-07-22T14:16:29;9.38;;;5.65;;
77838;SDS011;67034;43.226;27.932;2023-07-22T14:18:54;6.30;;;5.25;;
77838;SDS011;67034;43.226;27.932;2023-07-22T14:21:20;9.25;;;5.13;;
77838;SDS011;67034;43.226;27.932;2023-07-22T14:23:46;7.85;;;5.38;;